Thunder radar more information blitzortung!


Radar de pluja more information rain snow radar


Visita la nostra xarxa de llocs de meteo:

Template documentation
and downloads

And another site



No particular awareness of the weather is required.    There are no Weather-warnings

Pagina Historial Weather Underground text

Diari Resum Setembre 1, 2017 Unitats:  Mètric    Imperial   Tant
« Previous Dia
SegĂźent Dia »
Diari Setmana Mensual Anual Personalitzada
  Maxima: Minima: Media:
Temperatura: -17.8 °C -8.6 °C -5.6 °C
Punt de rosada: -17.8 °C -13.3 °C -10.2 °C
Humitat: Humidity % 39 % 61 %
Wind Speed: 0 km/h 0 km/h 8.4 km/h
RĂ fegues de vent: 0 km/h - -
Vent:- - South
Pression baro: 0 hPa 34361.1 hPa -
Precipitacions: 0 mm    
Historical Graphs
 
 
Dades de taula per Setembre 1, 2017
Temps Temperatura Punt de rosada Pression baro Vent Wind Speed RĂ fegues de vent Humitat Rainfall Rate (Hourly)
-17.8 °C -17.8 °C 0 hPa Calm     Humidity % 0 mm
00:00 -6.8 °C -9 °C 34462.7 hPa North 6 km/h 6 km/h 78 % 0 mm
00:05 -6.9 °C -9 °C 34462.7 hPa WNW 3.1 km/h   79 % 0 mm
00:10 -8.1 °C -9.2 °C 34462.7 hPa NNE 2.6 km/h 5.1 km/h 88 % 0 mm
00:20 -8.1 °C -9.2 °C 34462.7 hPa Calm   2.6 km/h 88 % 0 mm
00:30 -8.2 °C -9.3 °C 34462.7 hPa North 2.6 km/h 5.1 km/h 88 % 0 mm
00:50 -8.2 °C -9.2 °C 34462.7 hPa WSW 2.6 km/h 5.1 km/h 89 % 0 mm
01:00 -8.2 °C -9.2 °C 34462.7 hPa Calm     89 % 0 mm
01:10 -8.2 °C -9.2 °C 34462.7 hPa Calm     89 % 0 mm
01:20 -8.3 °C -9.3 °C 34462.7 hPa Calm   2.6 km/h 89 % 0 mm
01:30 -8.3 °C -9.3 °C 34462.7 hPa WSW 2.6 km/h 5.1 km/h 89 % 0 mm
01:40 -8.3 °C -9.3 °C 34462.7 hPa WSW 2.6 km/h 5.1 km/h 89 % 0 mm
01:50 -8.3 °C -9.3 °C 34462.7 hPa SW 2.6 km/h 5.1 km/h 90 % 0 mm
02:00 -8.4 °C -9.3 °C 34462.7 hPa SW 2.6 km/h 5.1 km/h 90 % 0 mm
02:10 -8.4 °C -9.3 °C 34462.7 hPa SW 2.6 km/h 5.1 km/h 90 % 0 mm
02:20 -8.4 °C -9.2 °C 34462.7 hPa Calm     91 % 0 mm
02:30 -8.4 °C -9.2 °C 34462.7 hPa Calm   5.1 km/h 91 % 0 mm
02:40 -8.4 °C -9.2 °C 34462.7 hPa Calm   2.6 km/h 92 % 0 mm
02:50 -8.4 °C -9.2 °C 34462.7 hPa NNE 5.1 km/h 5.1 km/h 92 % 0 mm
03:00 -8.4 °C -9.1 °C 34462.7 hPa Calm   7.7 km/h 92 % 0 mm
03:10 -8.4 °C -9.2 °C 34462.7 hPa Calm   5.1 km/h 92 % 0 mm
03:20 -8.4 °C -9.2 °C 34428.8 hPa NE 2.6 km/h 7.7 km/h 92 % 0 mm
03:30 -8.4 °C -9.2 °C 34428.8 hPa NE 2.6 km/h 5.1 km/h 92 % 0 mm
03:40 -8.4 °C -9.2 °C 34428.8 hPa Calm     92 % 0 mm
03:50 -8.4 °C -9.1 °C 34462.7 hPa Calm     92 % 0 mm
04:00 -8.4 °C -9.1 °C 34428.8 hPa Calm   2.6 km/h 92 % 0 mm
04:10 -8.3 °C -9.2 °C 34428.8 hPa Calm   2.6 km/h 91 % 0 mm
04:20 -8.3 °C -9.1 °C 34462.7 hPa North 2.6 km/h 2.6 km/h 92 % 0 mm
04:30 -8.3 °C -9.2 °C 34462.7 hPa SSW 2.6 km/h 7.7 km/h 91 % 0 mm
04:40 -8.3 °C -9.2 °C 34462.7 hPa Calm   5.1 km/h 91 % 0 mm
04:50 -8.3 °C -9 °C 34496.6 hPa WSW 2.6 km/h 5.1 km/h 92 % 0 mm
05:00 -8.6 °C -9.6 °C 34496.6 hPa West 2.6 km/h 2.6 km/h 89 % 0 mm
05:10 -8.4 °C -9.8 °C 34496.6 hPa Calm   5.1 km/h 86 % 0 mm
05:20 -8.2 °C -9.8 °C 34496.6 hPa WSW 5.1 km/h 7.7 km/h 83 % 0 mm
05:30 -8.1 °C -10.1 °C 34496.6 hPa WSW 2.6 km/h 5.1 km/h 79 % 0 mm
05:40 -7.9 °C -10.2 °C 34496.6 hPa Calm   2.6 km/h 77 % 0 mm
05:50 -7.8 °C -10.2 °C 34496.6 hPa West 2.6 km/h 7.7 km/h 76 % 0 mm
06:00 -7.8 °C -10.3 °C 34496.6 hPa West 2.6 km/h 5.1 km/h 75 % 0 mm
06:10 -7.8 °C -10.5 °C 34496.6 hPa Calm   5.1 km/h 73 % 0 mm
11:13 -6.9 °C -10.4 °C 34496.6 hPa WSW 5.1 km/h 5.1 km/h 67 % 0 mm
11:14 -6.9 °C -10.4 °C 34496.6 hPa WSW 5.1 km/h 5.1 km/h 67 % 0 mm
11:15 -6.9 °C -10.2 °C 34496.6 hPa SSW 11.9 km/h 11.9 km/h 68 % 0 mm
11:20 -6.8 °C -10.3 °C 34496.6 hPa West 9 km/h 9 km/h 67 % 0 mm
11:25 -6.7 °C -10.4 °C 34496.6 hPa WSW 9 km/h 9 km/h 65 % 0 mm
11:30 -6.6 °C -10.4 °C 34496.6 hPa NNW 9 km/h 9 km/h 65 % 0 mm
11:35 -6.4 °C -10.2 °C 34496.6 hPa West 6 km/h 6 km/h 65 % 0 mm
11:40 -6.2 °C -10.2 °C 34496.6 hPa SW 2.3 km/h   64 % 0 mm
11:45 -6 °C -9.9 °C 34496.6 hPa WSW 15 km/h 15 km/h 64 % 0 mm
11:46 -6 °C -9.9 °C 34496.6 hPa WNW 9 km/h 9 km/h 64 % 0 mm
11:51 -5.8 °C -9.9 °C 34496.6 hPa SW 9 km/h 9 km/h 63 % 0 mm
11:56 -5.6 °C -9.8 °C 34496.6 hPa WSW 9 km/h 9 km/h 62 % 0 mm
12:01 -5.5 °C -9.9 °C 34496.6 hPa NNE 9 km/h 9 km/h 61 % 0 mm
12:06 -5.4 °C -10.1 °C 34496.6 hPa SW 15 km/h 15 km/h 59 % 0 mm
12:11 -5.3 °C -10 °C 34462.7 hPa WSW 19.2 km/h 19.2 km/h 59 % 0 mm
12:16 -5.3 °C -10.1 °C 34462.7 hPa SE 6 km/h 6 km/h 58 % 0 mm
12:21 -5.1 °C -10.1 °C 34462.7 hPa WSW 9 km/h 9 km/h 57 % 0 mm
12:26 -5.2 °C -10.2 °C 34462.7 hPa West 6 km/h 6 km/h 57 % 0 mm
12:31 -5.3 °C -10.2 °C 34462.7 hPa SW 11.9 km/h 11.9 km/h 57 % 0 mm
12:36 -5.2 °C -10.2 °C 34462.7 hPa SW 9 km/h 9 km/h 57 % 0 mm
12:41 -5.3 °C -10.3 °C 34462.7 hPa West 9 km/h 9 km/h 57 % 0 mm
12:46 -5.4 °C -10.4 °C 34462.7 hPa West 9.3 km/h 9.3 km/h 57 % 0 mm
12:51 -5.7 °C -10.6 °C 34462.7 hPa SW 9 km/h 9 km/h 57 % 0 mm
12:56 -5.7 °C -10.5 °C 34462.7 hPa SW 11.9 km/h 11.9 km/h 58 % 0 mm
13:01 -5.9 °C -10.9 °C 34462.7 hPa WSW 15 km/h 15 km/h 57 % 0 mm
13:06 -5.9 °C -10.9 °C 34462.7 hPa West 9.8 km/h 9.8 km/h 57 % 0 mm
13:11 -5.8 °C -10.8 °C 34462.7 hPa WSW 19.6 km/h 19.6 km/h 57 % 0 mm
13:16 -5.7 °C -10.8 °C 34462.7 hPa WSW 15 km/h 15 km/h 56 % 0 mm
13:21 -5.5 °C -10.9 °C 34462.7 hPa WNW 11.9 km/h 11.9 km/h 54 % 0 mm
13:26 -5.2 °C -10.7 °C 34462.7 hPa WSW 9 km/h 9 km/h 54 % 0 mm
13:31 -5.2 °C -10.6 °C 34462.7 hPa West 6 km/h 6 km/h 54 % 0 mm
13:36 -4.8 °C -10.3 °C 34462.7 hPa SW 6 km/h 6 km/h 54 % 0 mm
13:41 -4.6 °C -10.2 °C 34462.7 hPa WSW 6.8 km/h 6.8 km/h 53 % 0 mm
13:46 -4.7 °C -10.5 °C 34462.7 hPa SW 11.9 km/h 11.9 km/h 52 % 0 mm
13:51 -4.8 °C -10.4 °C 34462.7 hPa West 9 km/h 9 km/h 53 % 0 mm
13:56 -4.4 °C -10.4 °C 34462.7 hPa WSW 17.9 km/h 17.9 km/h 51 % 0 mm
14:01 -4.4 °C -10.4 °C 34462.7 hPa SSW 15 km/h 15 km/h 51 % 0 mm
14:06 -4.2 °C -10.4 °C 34462.7 hPa SW 9 km/h 9 km/h 50 % 0 mm
14:11 -3.9 °C -10.4 °C 34462.7 hPa SSE 11.9 km/h 11.9 km/h 48 % 0 mm
14:16 -3.8 °C -10.4 °C 34462.7 hPa ENE 9 km/h 9 km/h 48 % 0 mm
14:21 -3.6 °C -10.1 °C 34462.7 hPa SW 15 km/h 15 km/h 48 % 0 mm
14:26 -3.5 °C -10.1 °C 34462.7 hPa SSW 9 km/h 9 km/h 48 % 0 mm
14:31 -3.3 °C -10.1 °C 34462.7 hPa WNW 15 km/h 15 km/h 47 % 0 mm
14:36 -3.3 °C -10.1 °C 34462.7 hPa SSE 15 km/h 15 km/h 47 % 0 mm
14:41 -3.1 °C -10.1 °C 34462.7 hPa West 6.3 km/h 6.3 km/h 46 % 0 mm
14:46 -3.1 °C -10.2 °C 34462.7 hPa SW 11.9 km/h 11.9 km/h 45 % 0 mm
14:51 -2.9 °C -10.1 °C 34462.7 hPa South 15 km/h 15 km/h 45 % 0 mm
14:56 -2.8 °C -10.2 °C 34428.8 hPa West 9 km/h 9 km/h 44 % 0 mm
15:01 -3.1 °C -10.7 °C 34428.8 hPa SSW 9 km/h 9 km/h 43 % 0 mm
15:06 -3.1 °C -10.6 °C 34428.8 hPa ESE 20.9 km/h 20.9 km/h 43 % 0 mm
15:11 -2.9 °C -10.5 °C 34428.8 hPa West 9 km/h 9 km/h 43 % 0 mm
15:16 -2.9 °C -10.3 °C 34428.8 hPa SSW 11.9 km/h 11.9 km/h 44 % 0 mm
15:21 -2.8 °C -10.4 °C 34428.8 hPa WSW 20.9 km/h 20.9 km/h 43 % 0 mm
15:26 -2.7 °C -11.2 °C 34395 hPa SE 11.9 km/h 11.9 km/h 39 % 0 mm
15:31 -2.6 °C -10.8 °C 34395 hPa East 11.9 km/h 11.9 km/h 40 % 0 mm
15:36 -2.8 °C -11 °C 34395 hPa ESE 6 km/h 6.3 km/h 40 % 0 mm
15:41 -2.8 °C -11 °C 34395 hPa South 17.9 km/h 17.9 km/h 40 % 0 mm
15:46 -2.6 °C -11 °C 34395 hPa WSW 15 km/h 15 km/h 39 % 0 mm
15:51 -2.6 °C -10.8 °C 34395 hPa SW 20.9 km/h 20.9 km/h 40 % 0 mm
15:56 -2.7 °C -10.9 °C 34395 hPa WSW 9.3 km/h 9.3 km/h 40 % 0 mm
16:01 -2.8 °C -11 °C 34395 hPa SW 9 km/h 9 km/h 40 % 0 mm
16:06 -3 °C -10.9 °C 34395 hPa SW 11.9 km/h 11.9 km/h 41 % 0 mm
16:11 -3.2 °C -11.3 °C 34395 hPa East 6 km/h 6 km/h 40 % 0 mm
16:16 -3.4 °C -11.3 °C 34395 hPa SE 11.9 km/h 11.9 km/h 41 % 0 mm
16:21 -3.2 °C -10.9 °C 34395 hPa SW 7.6 km/h 7.6 km/h 42 % 0 mm
16:26 -2.9 °C -10.4 °C 34395 hPa WSW 11.9 km/h 11.9 km/h 43 % 0 mm
16:31 -2.5 °C -10.5 °C 34395 hPa SW 9 km/h 9 km/h 41 % 0 mm
16:36 -2.4 °C -10.2 °C 34395 hPa WNW 9 km/h 9 km/h 42 % 0 mm
16:41 -2.3 °C -10.2 °C 34395 hPa SW 20.9 km/h 20.9 km/h 42 % 0 mm
16:46 -2.5 °C -10.3 °C 34395 hPa SSW 17.9 km/h 17.9 km/h 42 % 0 mm
16:51 -2.7 °C -10.3 °C 34395 hPa WSW 17.9 km/h 17.9 km/h 43 % 0 mm
16:56 -2.7 °C -10.2 °C 34395 hPa WSW 11.9 km/h 11.9 km/h 43 % 0 mm
17:01 -2.5 °C -9.9 °C 34395 hPa SSW 15 km/h 15 km/h 44 % 0 mm
17:06 -2.6 °C -10 °C 34395 hPa WSW 17.9 km/h 17.9 km/h 44 % 0 mm
17:11 -2.7 °C -10.1 °C 34395 hPa South 9 km/h 9 km/h 44 % 0 mm
17:16 -2.7 °C -9.9 °C 34395 hPa WSW 17.9 km/h 17.9 km/h 45 % 0 mm
17:21 -2.9 °C -9.9 °C 34395 hPa SSE 17.9 km/h 17.9 km/h 46 % 0 mm
17:26 -2.7 °C -9.9 °C 34361.1 hPa SW 15 km/h 15 km/h 45 % 0 mm
17:31 -2.7 °C -9.9 °C 34361.1 hPa SW 20.9 km/h 20.9 km/h 45 % 0 mm
17:36 -3 °C -9.9 °C 34361.1 hPa SSW 15 km/h 15 km/h 46 % 0 mm
17:41 -2.9 °C -9.9 °C 34361.1 hPa SW 20.9 km/h 20.9 km/h 46 % 0 mm
17:46 -2.8 °C -9.8 °C 34361.1 hPa WSW 15 km/h 15 km/h 46 % 0 mm
17:51 -2.6 °C -9.8 °C 34361.1 hPa WSW 15 km/h 15 km/h 45 % 0 mm
17:56 -2.7 °C -10.1 °C 34361.1 hPa SW 15 km/h 15 km/h 44 % 0 mm
18:01 -2.8 °C -10.2 °C 34361.1 hPa SSW 17.9 km/h 17.9 km/h 44 % 0 mm
18:06 -2.9 °C -10.3 °C 34361.1 hPa WSW 15 km/h 15 km/h 44 % 0 mm
18:11 -2.9 °C -10.5 °C 34361.1 hPa SSW 15 km/h 15 km/h 43 % 0 mm
18:16 -3.1 °C -10.6 °C 34361.1 hPa SW 20.9 km/h 20.9 km/h 43 % 0 mm
18:21 -3.2 °C -10.8 °C 34361.1 hPa South 15 km/h 15 km/h 43 % 0 mm
18:26 -3.1 °C -10.4 °C 34361.1 hPa South 15 km/h 15 km/h 44 % 0 mm
18:31 -3.2 °C -10.8 °C 34361.1 hPa SW 15 km/h 15 km/h 43 % 0 mm
18:36 -3.2 °C -10.8 °C 34361.1 hPa WSW 15 km/h 15 km/h 43 % 0 mm
18:41 -3.3 °C -10.6 °C 34361.1 hPa WSW 15.6 km/h 15.6 km/h 44 % 0 mm
18:46 -3.5 °C -11 °C 34361.1 hPa SW 15 km/h 15 km/h 43 % 0 mm
18:51 -3.6 °C -11.3 °C 34361.1 hPa SW 22 km/h 22 km/h 42 % 0 mm
18:56 -3.6 °C -11.1 °C 34395 hPa South 15 km/h 15 km/h 43 % 0 mm
19:01 -3.6 °C -10.9 °C 34395 hPa WSW 15.6 km/h 15.6 km/h 44 % 0 mm
19:02 -3.6 °C -10.9 °C 34395 hPa South 15.6 km/h 15.6 km/h 44 % 0 mm
19:07 -3.8 °C -11.1 °C 34395 hPa SSW 11.9 km/h 11.9 km/h 44 % 0 mm
19:10 -6.5 °C -9.6 °C 34462.7 hPa ESE 2.6 km/h 5.1 km/h 70 % 0 mm
19:12 -3.9 °C -11 °C 34395 hPa SSW 15 km/h 15 km/h 45 % 0 mm
19:17 -4 °C -11.1 °C 34395 hPa SW 11.9 km/h 11.9 km/h 45 % 0 mm
19:20 -6.5 °C -9.6 °C 34462.7 hPa East 2.6 km/h 5.1 km/h 70 % 0 mm
19:22 -4.2 °C -11.1 °C 34395 hPa SW 15 km/h 15 km/h 46 % 0 mm
19:27 -4.3 °C -11.2 °C 34395 hPa WSW 15 km/h 15 km/h 46 % 0 mm
19:30 -6.6 °C -9.7 °C 34462.7 hPa Calm   2.6 km/h 70 % 0 mm
19:32 -4.3 °C -11 °C 34395 hPa SSW 15.6 km/h 15.6 km/h 47 % 0 mm
19:37 -4.4 °C -11.1 °C 34395 hPa South 9 km/h 9 km/h 47 % 0 mm
19:40 -6.6 °C -9.8 °C 34462.7 hPa Calm   2.6 km/h 70 % 0 mm
19:42 -4.5 °C -11 °C 34395 hPa SSW 15 km/h 15 km/h 48 % 0 mm
19:47 -4.6 °C -11.1 °C 34395 hPa SW 6.3 km/h 6.3 km/h 48 % 0 mm
19:50 -6.7 °C -9.6 °C 34462.7 hPa North 2.6 km/h 5.1 km/h 72 % 0 mm
19:52 -4.6 °C -11.1 °C 34395 hPa SSW 15 km/h 15 km/h 48 % 0 mm
19:57 -4.7 °C -11.2 °C 34395 hPa South 4.2 km/h 4.2 km/h 48 % 0 mm
20:00 -6.9 °C -9.8 °C 34462.7 hPa Calm     72 % 0 mm
20:02 -4.8 °C -11.1 °C 34395 hPa SSW 6 km/h 8.5 km/h 49 % 0 mm
20:07 -4.9 °C -11 °C 34395 hPa South 9 km/h 9 km/h 50 % 0 mm
20:10 -6.9 °C -9.7 °C 34462.7 hPa Calm     73 % 0 mm
20:12 -4.9 °C -11.1 °C 34395 hPa Calm     50 % 0 mm
20:17 -5.1 °C -10.7 °C 34395 hPa ENE 6 km/h 6 km/h 53 % 0 mm
20:20 -7.1 °C -9.9 °C 34462.7 hPa Calm   5.1 km/h 73 % 0 mm
20:22 -5.3 °C -10.2 °C 34395 hPa SW 15 km/h 15 km/h 58 % 0 mm
20:27 -5.4 °C -10.1 °C 34395 hPa ESE 20.9 km/h 20.9 km/h 59 % 0 mm
20:30 -7.2 °C -9.8 °C 34462.7 hPa Calm   2.6 km/h 74 % 0 mm
20:32 -5.6 °C -9.9 °C 34395 hPa ESE 15 km/h 15 km/h 61 % 0 mm
20:37 -5.7 °C -9.9 °C 34395 hPa ESE 15 km/h 15 km/h 62 % 0 mm
20:40 -7.1 °C -9.8 °C 34462.7 hPa SW 2.6 km/h 5.1 km/h 74 % 0 mm
20:42 -5.7 °C -9.9 °C 34395 hPa East 9.8 km/h 11.1 km/h 62 % 0 mm
20:47 -5.7 °C -9.7 °C 34395 hPa ESE 20.9 km/h 20.9 km/h 64 % 0 mm
20:50 -7.3 °C -9.8 °C 34462.7 hPa SSW 5.1 km/h 5.1 km/h 75 % 0 mm
20:52 -5.8 °C -9.8 °C 34395 hPa East 11.9 km/h 11.9 km/h 64 % 0 mm
20:57 -5.8 °C -9.6 °C 34395 hPa ESE 11.1 km/h 11.1 km/h 65 % 0 mm
21:00 -7.3 °C -9.7 °C 34462.7 hPa Calm   5.1 km/h 76 % 0 mm
21:02 -5.9 °C -9.6 °C 34395 hPa ENE 15.3 km/h 15.3 km/h 66 % 0 mm
21:07 -5.9 °C -9.8 °C 34395 hPa East 11.9 km/h 11.9 km/h 65 % 0 mm
21:10 -7.2 °C -9.8 °C 34462.7 hPa Calm     75 % 0 mm
21:12 -5.9 °C -9.6 °C 34428.8 hPa ESE 15 km/h 15 km/h 66 % 0 mm
21:17 -5.9 °C -9.6 °C 34428.8 hPa ESE 11.9 km/h 11.9 km/h 66 % 0 mm
21:20 -7.2 °C -10.2 °C 34462.7 hPa Calm   2.6 km/h 71 % 0 mm
21:22 -5.9 °C -9.6 °C 34428.8 hPa ESE 6.3 km/h 8.5 km/h 66 % 0 mm
21:27 -5.9 °C -9.6 °C 34428.8 hPa ESE 6.3 km/h 8.5 km/h 66 % 0 mm
21:30 -7 °C -10.5 °C 34462.7 hPa NNE 2.6 km/h 2.6 km/h 67 % 0 mm
21:32 -5.9 °C -9.6 °C 34428.8 hPa ESE 6.3 km/h 8.5 km/h 66 % 0 mm
21:37 -5.9 °C -9.6 °C 34428.8 hPa ESE 6.3 km/h 8.5 km/h 66 % 0 mm
21:40 -7 °C -10.6 °C 34462.7 hPa NNE 2.6 km/h 5.1 km/h 66 % 0 mm
21:42 -5.9 °C -9.6 °C 34428.8 hPa ESE 6.3 km/h 8.5 km/h 66 % 0 mm
21:47 -5.9 °C -9.6 °C 34428.8 hPa ESE 6.3 km/h 8.5 km/h 66 % 0 mm
21:50 -7.1 °C -10.9 °C 34462.7 hPa WSW 2.6 km/h 5.1 km/h 65 % 0 mm
21:52 -5.9 °C -9.6 °C 34428.8 hPa ESE 6.3 km/h 8.5 km/h 66 % 0 mm
21:57 -5.9 °C -9.6 °C 34428.8 hPa ESE 6.3 km/h 8.5 km/h 66 % 0 mm
22:00 -7.2 °C -11.1 °C 34428.8 hPa WSW 5.1 km/h 5.1 km/h 64 % 0 mm
22:02 -5.9 °C -9.6 °C 34428.8 hPa ESE 6.3 km/h 8.5 km/h 66 % 0 mm
22:07 -5.9 °C -9.6 °C 34428.8 hPa ESE 6.3 km/h 8.5 km/h 66 % 0 mm
22:10 -7.2 °C -11.6 °C 34428.8 hPa WSW 2.6 km/h 7.7 km/h 60 % 0 mm
22:12 -5.9 °C -9.6 °C 34428.8 hPa ESE 6.3 km/h 8.5 km/h 66 % 0 mm
22:17 -5.9 °C -9.6 °C 34428.8 hPa ESE 6.3 km/h 8.5 km/h 66 % 0 mm
22:20 -7.3 °C -11.8 °C 34462.7 hPa WSW 7.7 km/h 7.7 km/h 59 % 0 mm
22:22 -5.9 °C -9.6 °C 34428.8 hPa ESE 6.3 km/h 8.5 km/h 66 % 0 mm
22:27 -5.9 °C -9.6 °C 34428.8 hPa ESE 6.3 km/h 8.5 km/h 66 % 0 mm
22:30 -7.4 °C -12 °C 34462.7 hPa Calm   5.1 km/h 59 % 0 mm
22:32 -5.9 °C -9.6 °C 34428.8 hPa ESE 6.3 km/h 8.5 km/h 66 % 0 mm
22:37 -5.9 °C -9.6 °C 34428.8 hPa ESE 6.3 km/h 8.5 km/h 66 % 0 mm
22:40 -7.4 °C -12.1 °C 34462.7 hPa WSW 5.1 km/h 7.7 km/h 58 % 0 mm
22:42 -5.9 °C -9.6 °C 34428.8 hPa ESE 6.3 km/h 8.5 km/h 66 % 0 mm
22:47 -5.9 °C -9.6 °C 34428.8 hPa ESE 6.3 km/h 8.5 km/h 66 % 0 mm
22:50 -7.5 °C -12.4 °C 34462.7 hPa West 5.1 km/h 7.7 km/h 56 % 0 mm
22:52 -5.9 °C -9.6 °C 34428.8 hPa ESE 6.3 km/h 8.5 km/h 66 % 0 mm
22:57 -5.9 °C -9.6 °C 34428.8 hPa ESE 6.3 km/h 8.5 km/h 66 % 0 mm
23:00 -7.6 °C -12.6 °C 34428.8 hPa West 5.1 km/h 10.3 km/h 56 % 0 mm
23:02 -5.9 °C -9.6 °C 34428.8 hPa ESE 6.3 km/h 8.5 km/h 66 % 0 mm
23:07 -5.9 °C -9.6 °C 34428.8 hPa ESE 6.3 km/h 8.5 km/h 66 % 0 mm
23:10 -7.8 °C -13 °C 34428.8 hPa West 2.6 km/h 7.7 km/h 54 % 0 mm
23:12 -5.9 °C -9.6 °C 34428.8 hPa ESE 6.3 km/h 8.5 km/h 66 % 0 mm
23:17 -5.9 °C -9.6 °C 34428.8 hPa ESE 6.3 km/h 8.5 km/h 66 % 0 mm
23:20 -7.9 °C -13 °C 34462.7 hPa WNW 5.1 km/h 7.7 km/h 55 % 0 mm
23:22 -5.9 °C -9.6 °C 34428.8 hPa ESE 6.3 km/h 8.5 km/h 66 % 0 mm
23:27 -5.9 °C -9.6 °C 34428.8 hPa ESE 6.3 km/h 8.5 km/h 66 % 0 mm
23:30 -8.1 °C -13.2 °C 34462.7 hPa West 2.6 km/h 7.7 km/h 55 % 0 mm
23:32 -5.9 °C -9.6 °C 34428.8 hPa ESE 6.3 km/h 8.5 km/h 66 % 0 mm
23:37 -5.9 °C -9.6 °C 34428.8 hPa ESE 6.3 km/h 8.5 km/h 66 % 0 mm
23:40 -8.3 °C -13.2 °C 34462.7 hPa WSW 2.6 km/h 7.7 km/h 56 % 0 mm
23:42 -5.9 °C -9.6 °C 34428.8 hPa ESE 6.3 km/h 8.5 km/h 66 % 0 mm
23:47 -5.9 °C -9.6 °C 34428.8 hPa ESE 6.3 km/h 8.5 km/h 66 % 0 mm
23:50 -8.5 °C -13.3 °C 34496.6 hPa WSW 2.6 km/h 7.7 km/h 57 % 0 mm
23:52 -5.9 °C -9.6 °C 34428.8 hPa ESE 6.3 km/h 8.5 km/h 66 % 0 mm
23:57 -5.9 °C -9.6 °C 34428.8 hPa ESE 6.3 km/h 8.5 km/h 66 % 0 mm
Meteo Sesrovires
Elogis d' Weather Underground - 2 mb

Guio original per  Jim McMurry - jmcmurry@mwt.net Adaptat per a la plantilla per  Wim van der Kuil - Leuven-Template.eu

Trobareu la nostra informacio del temps tambe a:

Weather Underground

AWEKAS